sensor_id;sensor_type;location;lat;lon;timestamp;pressure;altitude;pressure_sealevel;temperature;humidity
28606;BME280;46498;49.968;7.754;2024-02-16T00:04:39;-18601.00;;;10.16;100.00
28606;BME280;46498;49.968;7.754;2024-02-16T00:09:40;-18599.00;;;10.08;100.00
28606;BME280;46498;49.968;7.754;2024-02-16T00:14:41;-18592.00;;;9.88;100.00
28606;BME280;46498;49.968;7.754;2024-02-16T00:19:42;-18593.00;;;9.88;100.00
28606;BME280;46498;49.968;7.754;2024-02-16T00:24:43;-18593.00;;;9.91;100.00
28606;BME280;46498;49.968;7.754;2024-02-16T00:29:44;-18591.00;;;9.84;100.00
28606;BME280;46498;49.968;7.754;2024-02-16T00:34:46;-18592.00;;;9.88;100.00
28606;BME280;46498;49.968;7.754;2024-02-16T00:39:47;-18598.00;;;10.04;100.00
28606;BME280;46498;49.968;7.754;2024-02-16T00:44:48;-18599.00;;;10.08;100.00
28606;BME280;46498;49.968;7.754;2024-02-16T00:49:49;-18602.00;;;10.17;100.00
28606;BME280;46498;49.968;7.754;2024-02-16T00:54:50;-18604.00;;;10.23;100.00
28606;BME280;46498;49.968;7.754;2024-02-16T00:59:51;-18601.00;;;10.14;100.00
28606;BME280;46498;49.968;7.754;2024-02-16T01:04:52;-18598.00;;;10.06;100.00
28606;BME280;46498;49.968;7.754;2024-02-16T01:09:53;-18599.00;;;10.08;100.00
28606;BME280;46498;49.968;7.754;2024-02-16T01:14:55;-18592.00;;;9.86;100.00
28606;BME280;46498;49.968;7.754;2024-02-16T01:19:56;-18588.00;;;9.75;100.00
28606;BME280;46498;49.968;7.754;2024-02-16T01:24:57;-18585.00;;;9.65;100.00
28606;BME280;46498;49.968;7.754;2024-02-16T01:29:58;-18590.00;;;9.81;100.00
28606;BME280;46498;49.968;7.754;2024-02-16T01:34:59;-18589.00;;;9.78;100.00
28606;BME280;46498;49.968;7.754;2024-02-16T01:40:01;-18593.00;;;9.90;100.00
28606;BME280;46498;49.968;7.754;2024-02-16T01:45:04;-18592.00;;;9.87;100.00
28606;BME280;46498;49.968;7.754;2024-02-16T01:50:05;-18588.00;;;9.73;100.00
28606;BME280;46498;49.968;7.754;2024-02-16T01:55:08;-18587.00;;;9.71;100.00
28606;BME280;46498;49.968;7.754;2024-02-16T02:00:13;-18588.00;;;9.73;100.00
28606;BME280;46498;49.968;7.754;2024-02-16T02:05:15;-18588.00;;;9.74;100.00
28606;BME280;46498;49.968;7.754;2024-02-16T02:10:17;-18589.00;;;9.78;100.00
28606;BME280;46498;49.968;7.754;2024-02-16T02:15:18;-18589.00;;;9.76;100.00
28606;BME280;46498;49.968;7.754;2024-02-16T02:20:20;-18589.00;;;9.75;100.00
28606;BME280;46498;49.968;7.754;2024-02-16T02:25:21;-18588.00;;;9.73;100.00
28606;BME280;46498;49.968;7.754;2024-02-16T02:30:25;-18587.00;;;9.71;100.00
28606;BME280;46498;49.968;7.754;2024-02-16T02:35:26;-18586.00;;;9.68;100.00
28606;BME280;46498;49.968;7.754;2024-02-16T02:40:27;-18589.00;;;9.76;100.00
28606;BME280;46498;49.968;7.754;2024-02-16T02:45:28;-18587.00;;;9.70;100.00
28606;BME280;46498;49.968;7.754;2024-02-16T02:50:29;-18587.00;;;9.70;100.00
28606;BME280;46498;49.968;7.754;2024-02-16T02:55:31;-18588.00;;;9.73;100.00
28606;BME280;46498;49.968;7.754;2024-02-16T03:00:32;-18591.00;;;9.83;100.00
28606;BME280;46498;49.968;7.754;2024-02-16T03:05:33;-18589.00;;;9.77;100.00
28606;BME280;46498;49.968;7.754;2024-02-16T03:10:34;-18591.00;;;9.83;100.00
28606;BME280;46498;49.968;7.754;2024-02-16T03:15:36;-18590.00;;;9.79;100.00
28606;BME280;46498;49.968;7.754;2024-02-16T03:20:37;-18590.00;;;9.80;100.00
28606;BME280;46498;49.968;7.754;2024-02-16T03:25:38;-18592.00;;;9.86;100.00
28606;BME280;46498;49.968;7.754;2024-02-16T03:30:40;-18589.00;;;9.78;100.00
28606;BME280;46498;49.968;7.754;2024-02-16T03:35:41;-18588.00;;;9.74;100.00
28606;BME280;46498;49.968;7.754;2024-02-16T03:40:42;-18590.00;;;9.80;100.00
28606;BME280;46498;49.968;7.754;2024-02-16T03:45:42;-18595.00;;;9.94;100.00
28606;BME280;46498;49.968;7.754;2024-02-16T03:50:43;-18592.00;;;9.87;100.00
28606;BME280;46498;49.968;7.754;2024-02-16T03:55:44;-18593.00;;;9.90;100.00
28606;BME280;46498;49.968;7.754;2024-02-16T04:00:45;-18591.00;;;9.82;100.00
28606;BME280;46498;49.968;7.754;2024-02-16T04:05:46;-18590.00;;;9.81;100.00
28606;BME280;46498;49.968;7.754;2024-02-16T04:10:47;-18589.00;;;9.78;100.00
28606;BME280;46498;49.968;7.754;2024-02-16T04:15:48;-18591.00;;;9.84;100.00
28606;BME280;46498;49.968;7.754;2024-02-16T04:20:54;-18592.00;;;9.88;100.00
28606;BME280;46498;49.968;7.754;2024-02-16T04:25:56;-18589.00;;;9.78;100.00
28606;BME280;46498;49.968;7.754;2024-02-16T04:30:57;-18586.00;;;9.69;100.00
28606;BME280;46498;49.968;7.754;2024-02-16T04:35:58;-18585.00;;;9.64;100.00
28606;BME280;46498;49.968;7.754;2024-02-16T04:40:58;-18583.00;;;9.57;100.00
28606;BME280;46498;49.968;7.754;2024-02-16T04:46:00;-18582.00;;;9.55;100.00
28606;BME280;46498;49.968;7.754;2024-02-16T04:51:01;-18580.00;;;9.50;100.00
28606;BME280;46498;49.968;7.754;2024-02-16T04:56:04;-18579.00;;;9.46;100.00
28606;BME280;46498;49.968;7.754;2024-02-16T05:01:05;-18585.00;;;9.64;100.00
28606;BME280;46498;49.968;7.754;2024-02-16T05:06:07;-18588.00;;;9.73;100.00
28606;BME280;46498;49.968;7.754;2024-02-16T05:11:08;-18587.00;;;9.70;100.00
28606;BME280;46498;49.968;7.754;2024-02-16T05:16:10;-18590.00;;;9.80;100.00
28606;BME280;46498;49.968;7.754;2024-02-16T05:21:11;-18595.00;;;9.96;100.00
28606;BME280;46498;49.968;7.754;2024-02-16T05:26:12;-18593.00;;;9.90;100.00
28606;BME280;46498;49.968;7.754;2024-02-16T05:31:15;-18592.00;;;9.85;100.00
28606;BME280;46498;49.968;7.754;2024-02-16T05:36:20;-18593.00;;;9.88;100.00
28606;BME280;46498;49.968;7.754;2024-02-16T05:41:21;-18592.00;;;9.85;100.00
28606;BME280;46498;49.968;7.754;2024-02-16T05:46:22;-18592.00;;;9.85;100.00
28606;BME280;46498;49.968;7.754;2024-02-16T05:51:24;-18592.00;;;9.86;100.00
28606;BME280;46498;49.968;7.754;2024-02-16T05:56:25;-18595.00;;;9.95;100.00
28606;BME280;46498;49.968;7.754;2024-02-16T06:01:26;-18600.00;;;10.11;100.00
28606;BME280;46498;49.968;7.754;2024-02-16T06:06:28;-18598.00;;;10.04;100.00
28606;BME280;46498;49.968;7.754;2024-02-16T06:11:29;-18598.00;;;10.05;100.00
28606;BME280;46498;49.968;7.754;2024-02-16T06:16:30;-18603.00;;;10.20;100.00
28606;BME280;46498;49.968;7.754;2024-02-16T06:21:31;-18596.00;;;9.98;100.00
28606;BME280;46498;49.968;7.754;2024-02-16T06:26:32;-18592.00;;;9.86;100.00
28606;BME280;46498;49.968;7.754;2024-02-16T06:31:33;-18593.00;;;9.89;100.00
28606;BME280;46498;49.968;7.754;2024-02-16T06:36:34;-18593.00;;;9.89;100.00
28606;BME280;46498;49.968;7.754;2024-02-16T06:41:35;-18592.00;;;9.87;100.00
28606;BME280;46498;49.968;7.754;2024-02-16T06:46:36;-18591.00;;;9.83;100.00
28606;BME280;46498;49.968;7.754;2024-02-16T06:51:36;-18605.00;;;10.26;100.00
28606;BME280;46498;49.968;7.754;2024-02-16T06:56:38;-18600.00;;;10.13;100.00
28606;BME280;46498;49.968;7.754;2024-02-16T07:01:39;-18601.00;;;10.14;100.00
28606;BME280;46498;49.968;7.754;2024-02-16T07:06:41;-18595.00;;;9.95;100.00
28606;BME280;46498;49.968;7.754;2024-02-16T07:11:42;-18594.00;;;9.93;100.00
28606;BME280;46498;49.968;7.754;2024-02-16T07:16:50;-18593.00;;;9.90;100.00
28606;BME280;46498;49.968;7.754;2024-02-16T07:21:50;-18594.00;;;9.92;100.00
28606;BME280;46498;49.968;7.754;2024-02-16T07:26:53;-18593.00;;;9.89;100.00
28606;BME280;46498;49.968;7.754;2024-02-16T07:31:54;-18600.00;;;10.10;100.00
28606;BME280;46498;49.968;7.754;2024-02-16T07:36:56;-18598.00;;;10.04;100.00
28606;BME280;46498;49.968;7.754;2024-02-16T07:41:57;-18598.00;;;10.05;100.00
28606;BME280;46498;49.968;7.754;2024-02-16T07:46:58;-18600.00;;;10.10;100.00
28606;BME280;46498;49.968;7.754;2024-02-16T07:51:59;-18601.00;;;10.16;100.00
28606;BME280;46498;49.968;7.754;2024-02-16T07:57:01;-18604.00;;;10.24;100.00
28606;BME280;46498;49.968;7.754;2024-02-16T08:02:02;-18606.00;;;10.29;100.00
28606;BME280;46498;49.968;7.754;2024-02-16T08:07:03;-18609.00;;;10.39;100.00
28606;BME280;46498;49.968;7.754;2024-02-16T08:12:05;-18612.00;;;10.51;100.00
28606;BME280;46498;49.968;7.754;2024-02-16T08:17:07;-18612.00;;;10.49;100.00
28606;BME280;46498;49.968;7.754;2024-02-16T08:22:21;-18613.00;;;10.54;100.00
28606;BME280;46498;49.968;7.754;2024-02-16T08:27:22;-18616.00;;;10.62;100.00
28606;BME280;46498;49.968;7.754;2024-02-16T08:32:23;-18616.00;;;10.63;100.00
28606;BME280;46498;49.968;7.754;2024-02-16T08:37:24;-18615.00;;;10.60;100.00
28606;BME280;46498;49.968;7.754;2024-02-16T08:42:26;-18620.00;;;10.73;100.00
28606;BME280;46498;49.968;7.754;2024-02-16T08:47:27;-18620.00;;;10.74;100.00
28606;BME280;46498;49.968;7.754;2024-02-16T08:52:28;-18627.00;;;10.96;100.00
28606;BME280;46498;49.968;7.754;2024-02-16T08:57:31;-18629.00;;;11.01;100.00
28606;BME280;46498;49.968;7.754;2024-02-16T09:02:33;-18628.00;;;10.98;100.00
28606;BME280;46498;49.968;7.754;2024-02-16T09:07:33;-18631.00;;;11.10;100.00
28606;BME280;46498;49.968;7.754;2024-02-16T09:12:34;-18634.00;;;11.18;100.00
28606;BME280;46498;49.968;7.754;2024-02-16T09:17:36;-18635.00;;;11.20;100.00
28606;BME280;46498;49.968;7.754;2024-02-16T09:22:40;-18638.00;;;11.31;100.00
28606;BME280;46498;49.968;7.754;2024-02-16T09:27:46;-18641.00;;;11.40;100.00
28606;BME280;46498;49.968;7.754;2024-02-16T09:32:47;-18646.00;;;11.57;100.00
28606;BME280;46498;49.968;7.754;2024-02-16T09:37:48;-18644.00;;;11.51;100.00
28606;BME280;46498;49.968;7.754;2024-02-16T09:42:49;-18648.00;;;11.63;100.00
28606;BME280;46498;49.968;7.754;2024-02-16T09:47:52;-18650.00;;;11.69;100.00
28606;BME280;46498;49.968;7.754;2024-02-16T09:53:13;-18654.00;;;11.80;100.00
28606;BME280;46498;49.968;7.754;2024-02-16T09:58:15;-18660.00;;;12.00;100.00
28606;BME280;46498;49.968;7.754;2024-02-16T10:03:29;-18669.00;;;12.27;100.00
28606;BME280;46498;49.968;7.754;2024-02-16T10:08:31;-18672.00;;;12.36;100.00
28606;BME280;46498;49.968;7.754;2024-02-16T10:13:32;-18676.00;;;12.49;100.00
28606;BME280;46498;49.968;7.754;2024-02-16T10:18:33;-18682.00;;;12.70;100.00
28606;BME280;46498;49.968;7.754;2024-02-16T10:23:34;-18692.00;;;13.00;100.00
28606;BME280;46498;49.968;7.754;2024-02-16T10:28:44;-18699.00;;;13.22;100.00
28606;BME280;46498;49.968;7.754;2024-02-16T10:33:47;-18711.00;;;13.59;100.00
28606;BME280;46498;49.968;7.754;2024-02-16T10:38:49;-18717.00;;;13.79;100.00
28606;BME280;46498;49.968;7.754;2024-02-16T10:43:53;-18730.00;;;14.19;100.00
28606;BME280;46498;49.968;7.754;2024-02-16T10:48:54;-18723.00;;;13.99;100.00
28606;BME280;46498;49.968;7.754;2024-02-16T10:53:56;-18717.00;;;13.79;100.00
28606;BME280;46498;49.968;7.754;2024-02-16T10:59:03;-18726.00;;;14.07;100.00
28606;BME280;46498;49.968;7.754;2024-02-16T11:04:06;-18723.00;;;13.96;100.00
28606;BME280;46498;49.968;7.754;2024-02-16T11:09:10;-18710.00;;;13.57;100.00
28606;BME280;46498;49.968;7.754;2024-02-16T11:14:15;-18730.00;;;14.21;100.00
28606;BME280;46498;49.968;7.754;2024-02-16T11:19:16;-18756.00;;;15.01;100.00
28606;BME280;46498;49.968;7.754;2024-02-16T11:24:17;-18765.00;;;15.28;100.00
28606;BME280;46498;49.968;7.754;2024-02-16T11:29:25;-18771.00;;;15.49;100.00
28606;BME280;46498;49.968;7.754;2024-02-16T11:34:26;-18787.00;;;15.99;100.00
28606;BME280;46498;49.968;7.754;2024-02-16T11:39:28;-18781.00;;;15.80;100.00
28606;BME280;46498;49.968;7.754;2024-02-16T11:44:37;-18801.00;;;16.41;100.00
28606;BME280;46498;49.968;7.754;2024-02-16T11:49:40;-18808.00;;;16.66;100.00
28606;BME280;46498;49.968;7.754;2024-02-16T11:54:45;-18797.00;;;16.31;100.00
28606;BME280;46498;49.968;7.754;2024-02-16T11:59:46;-18791.00;;;16.10;100.00
28606;BME280;46498;49.968;7.754;2024-02-16T12:04:47;-18786.00;;;15.96;100.00
28606;BME280;46498;49.968;7.754;2024-02-16T12:10:03;-18775.00;;;15.62;100.00
28606;BME280;46498;49.968;7.754;2024-02-16T12:15:07;-18769.00;;;15.42;100.00
28606;BME280;46498;49.968;7.754;2024-02-16T12:20:12;-18761.00;;;15.16;100.00
28606;BME280;46498;49.968;7.754;2024-02-16T12:25:17;-18756.00;;;15.01;100.00
28606;BME280;46498;49.968;7.754;2024-02-16T12:30:18;-18754.00;;;14.95;100.00
28606;BME280;46498;49.968;7.754;2024-02-16T12:35:19;-18750.00;;;14.83;100.00
28606;BME280;46498;49.968;7.754;2024-02-16T12:40:20;-18754.00;;;14.96;100.00
28606;BME280;46498;49.968;7.754;2024-02-16T12:45:20;-18758.00;;;15.07;100.00
28606;BME280;46498;49.968;7.754;2024-02-16T12:50:24;-18763.00;;;15.22;100.00
28606;BME280;46498;49.968;7.754;2024-02-16T12:55:25;-18762.00;;;15.20;100.00
28606;BME280;46498;49.968;7.754;2024-02-16T13:00:26;-18759.00;;;15.10;100.00
28606;BME280;46498;49.968;7.754;2024-02-16T13:05:27;-18746.00;;;14.68;100.00
28606;BME280;46498;49.968;7.754;2024-02-16T13:10:29;-18739.00;;;14.49;100.00
28606;BME280;46498;49.968;7.754;2024-02-16T13:15:31;-18739.00;;;14.48;100.00
28606;BME280;46498;49.968;7.754;2024-02-16T13:20:32;-18736.00;;;14.37;100.00
28606;BME280;46498;49.968;7.754;2024-02-16T13:25:35;-18728.00;;;14.14;100.00
28606;BME280;46498;49.968;7.754;2024-02-16T13:30:37;-18725.00;;;14.03;100.00
28606;BME280;46498;49.968;7.754;2024-02-16T13:35:38;-18721.00;;;13.93;100.00
28606;BME280;46498;49.968;7.754;2024-02-16T13:40:39;-18724.00;;;14.02;100.00
28606;BME280;46498;49.968;7.754;2024-02-16T13:45:52;-18730.00;;;14.18;100.00
28606;BME280;46498;49.968;7.754;2024-02-16T13:50:54;-18730.00;;;14.18;100.00
28606;BME280;46498;49.968;7.754;2024-02-16T13:55:57;-18727.00;;;14.09;100.00
28606;BME280;46498;49.968;7.754;2024-02-16T14:01:02;-18726.00;;;14.06;100.00
28606;BME280;46498;49.968;7.754;2024-02-16T14:06:04;-18720.00;;;13.87;100.00
28606;BME280;46498;49.968;7.754;2024-02-16T14:11:06;-18715.00;;;13.73;100.00
28606;BME280;46498;49.968;7.754;2024-02-16T14:16:09;-18715.00;;;13.72;100.00
28606;BME280;46498;49.968;7.754;2024-02-16T14:21:10;-18712.00;;;13.64;100.00
28606;BME280;46498;49.968;7.754;2024-02-16T14:26:12;-18705.00;;;13.41;100.00
28606;BME280;46498;49.968;7.754;2024-02-16T14:31:13;-18699.00;;;13.23;100.00
28606;BME280;46498;49.968;7.754;2024-02-16T14:36:15;-18701.00;;;13.28;100.00
28606;BME280;46498;49.968;7.754;2024-02-16T14:41:16;-18698.00;;;13.20;100.00
28606;BME280;46498;49.968;7.754;2024-02-16T14:46:17;-18697.00;;;13.15;100.00
28606;BME280;46498;49.968;7.754;2024-02-16T14:51:18;-18696.00;;;13.13;100.00
28606;BME280;46498;49.968;7.754;2024-02-16T14:56:19;-18692.00;;;13.00;100.00
28606;BME280;46498;49.968;7.754;2024-02-16T15:01:22;-18692.00;;;12.99;100.00
28606;BME280;46498;49.968;7.754;2024-02-16T15:06:23;-18689.00;;;12.90;100.00
28606;BME280;46498;49.968;7.754;2024-02-16T15:11:24;-18684.00;;;12.75;100.00
28606;BME280;46498;49.968;7.754;2024-02-16T15:16:25;-18680.00;;;12.64;100.00
28606;BME280;46498;49.968;7.754;2024-02-16T15:21:26;-18675.00;;;12.48;100.00
28606;BME280;46498;49.968;7.754;2024-02-16T15:26:28;-18675.00;;;12.47;100.00
28606;BME280;46498;49.968;7.754;2024-02-16T15:31:29;-18669.00;;;12.29;100.00
28606;BME280;46498;49.968;7.754;2024-02-16T15:36:31;-18669.00;;;12.27;100.00
28606;BME280;46498;49.968;7.754;2024-02-16T15:41:32;-18668.00;;;12.25;100.00
28606;BME280;46498;49.968;7.754;2024-02-16T15:46:34;-18667.00;;;12.22;100.00
28606;BME280;46498;49.968;7.754;2024-02-16T15:51:35;-18660.00;;;11.99;100.00
28606;BME280;46498;49.968;7.754;2024-02-16T15:56:36;-18659.00;;;11.97;100.00
28606;BME280;46498;49.968;7.754;2024-02-16T16:01:37;-18655.00;;;11.85;100.00
28606;BME280;46498;49.968;7.754;2024-02-16T16:06:38;-18655.00;;;11.83;100.00
28606;BME280;46498;49.968;7.754;2024-02-16T16:11:42;-18653.00;;;11.77;100.00
28606;BME280;46498;49.968;7.754;2024-02-16T16:16:44;-18653.00;;;11.79;100.00
28606;BME280;46498;49.968;7.754;2024-02-16T16:21:45;-18654.00;;;11.80;100.00
28606;BME280;46498;49.968;7.754;2024-02-16T16:26:46;-18653.00;;;11.78;100.00
28606;BME280;46498;49.968;7.754;2024-02-16T16:31:49;-18655.00;;;11.83;100.00
28606;BME280;46498;49.968;7.754;2024-02-16T16:36:50;-18653.00;;;11.79;100.00
28606;BME280;46498;49.968;7.754;2024-02-16T16:41:52;-18649.00;;;11.66;100.00
28606;BME280;46498;49.968;7.754;2024-02-16T16:46:56;-18649.00;;;11.65;100.00
28606;BME280;46498;49.968;7.754;2024-02-16T16:51:56;-18649.00;;;11.66;100.00
28606;BME280;46498;49.968;7.754;2024-02-16T16:56:58;-18647.00;;;11.60;100.00
28606;BME280;46498;49.968;7.754;2024-02-16T17:02:00;-18645.00;;;11.54;100.00
28606;BME280;46498;49.968;7.754;2024-02-16T17:07:04;-18646.00;;;11.56;100.00
28606;BME280;46498;49.968;7.754;2024-02-16T17:12:05;-18646.00;;;11.56;100.00
28606;BME280;46498;49.968;7.754;2024-02-16T17:17:07;-18651.00;;;11.70;100.00
28606;BME280;46498;49.968;7.754;2024-02-16T17:22:08;-18645.00;;;11.52;100.00
28606;BME280;46498;49.968;7.754;2024-02-16T17:27:09;-18645.00;;;11.52;100.00
28606;BME280;46498;49.968;7.754;2024-02-16T17:32:10;-18642.00;;;11.42;100.00
28606;BME280;46498;49.968;7.754;2024-02-16T17:37:11;-18642.00;;;11.45;100.00
28606;BME280;46498;49.968;7.754;2024-02-16T17:42:12;-18643.00;;;11.47;100.00
28606;BME280;46498;49.968;7.754;2024-02-16T17:47:13;-18645.00;;;11.52;100.00
28606;BME280;46498;49.968;7.754;2024-02-16T17:52:16;-18645.00;;;11.52;100.00
28606;BME280;46498;49.968;7.754;2024-02-16T17:57:17;-18647.00;;;11.59;100.00
28606;BME280;46498;49.968;7.754;2024-02-16T18:02:20;-18645.00;;;11.52;100.00
28606;BME280;46498;49.968;7.754;2024-02-16T18:07:39;-18645.00;;;11.52;100.00
28606;BME280;46498;49.968;7.754;2024-02-16T18:12:40;-18640.00;;;11.38;100.00
28606;BME280;46498;49.968;7.754;2024-02-16T18:17:41;-18641.00;;;11.42;100.00
28606;BME280;46498;49.968;7.754;2024-02-16T18:22:42;-18639.00;;;11.35;100.00
28606;BME280;46498;49.968;7.754;2024-02-16T18:27:43;-18639.00;;;11.32;100.00
28606;BME280;46498;49.968;7.754;2024-02-16T18:32:44;-18637.00;;;11.27;100.00
28606;BME280;46498;49.968;7.754;2024-02-16T18:37:45;-18635.00;;;11.20;100.00
28606;BME280;46498;49.968;7.754;2024-02-16T18:42:46;-18637.00;;;11.28;100.00
28606;BME280;46498;49.968;7.754;2024-02-16T18:47:49;-18635.00;;;11.21;100.00
28606;BME280;46498;49.968;7.754;2024-02-16T18:52:50;-18633.00;;;11.16;100.00
28606;BME280;46498;49.968;7.754;2024-02-16T18:57:51;-18633.00;;;11.16;100.00
28606;BME280;46498;49.968;7.754;2024-02-16T19:02:53;-18631.00;;;11.08;100.00
28606;BME280;46498;49.968;7.754;2024-02-16T19:07:54;-18631.00;;;11.09;100.00
28606;BME280;46498;49.968;7.754;2024-02-16T19:12:55;-18632.00;;;11.11;100.00
28606;BME280;46498;49.968;7.754;2024-02-16T19:17:56;-18630.00;;;11.05;100.00
28606;BME280;46498;49.968;7.754;2024-02-16T19:22:57;-18631.00;;;11.10;100.00
28606;BME280;46498;49.968;7.754;2024-02-16T19:27:59;-18629.00;;;11.04;100.00
28606;BME280;46498;49.968;7.754;2024-02-16T19:33:00;-18632.00;;;11.12;100.00
28606;BME280;46498;49.968;7.754;2024-02-16T19:38:01;-18629.00;;;11.04;100.00
28606;BME280;46498;49.968;7.754;2024-02-16T19:43:02;-18626.00;;;10.93;100.00
28606;BME280;46498;49.968;7.754;2024-02-16T19:48:04;-18629.00;;;11.03;100.00
28606;BME280;46498;49.968;7.754;2024-02-16T19:53:05;-18626.00;;;10.94;100.00
28606;BME280;46498;49.968;7.754;2024-02-16T19:58:06;-18625.00;;;10.89;100.00
28606;BME280;46498;49.968;7.754;2024-02-16T20:03:08;-18629.00;;;11.01;100.00
28606;BME280;46498;49.968;7.754;2024-02-16T20:08:09;-18628.00;;;11.00;100.00
28606;BME280;46498;49.968;7.754;2024-02-16T20:13:09;-18629.00;;;11.02;100.00
28606;BME280;46498;49.968;7.754;2024-02-16T20:18:11;-18626.00;;;10.93;100.00
28606;BME280;46498;49.968;7.754;2024-02-16T20:23:18;-18625.00;;;10.89;100.00
28606;BME280;46498;49.968;7.754;2024-02-16T20:28:19;-18627.00;;;10.95;100.00
28606;BME280;46498;49.968;7.754;2024-02-16T20:33:20;-18627.00;;;10.95;100.00
28606;BME280;46498;49.968;7.754;2024-02-16T20:38:21;-18625.00;;;10.90;100.00
28606;BME280;46498;49.968;7.754;2024-02-16T20:43:21;-18625.00;;;10.90;100.00
28606;BME280;46498;49.968;7.754;2024-02-16T20:48:22;-18627.00;;;10.97;100.00
28606;BME280;46498;49.968;7.754;2024-02-16T20:53:24;-18622.00;;;10.80;100.00
28606;BME280;46498;49.968;7.754;2024-02-16T20:58:25;-18616.00;;;10.60;100.00
28606;BME280;46498;49.968;7.754;2024-02-16T21:03:26;-18610.00;;;10.43;100.00
28606;BME280;46498;49.968;7.754;2024-02-16T21:08:27;-18604.00;;;10.25;100.00
28606;BME280;46498;49.968;7.754;2024-02-16T21:13:27;-18602.00;;;10.17;100.00
28606;BME280;46498;49.968;7.754;2024-02-16T21:18:28;-18597.00;;;10.01;100.00
28606;BME280;46498;49.968;7.754;2024-02-16T21:23:30;-18592.00;;;9.87;100.00
28606;BME280;46498;49.968;7.754;2024-02-16T21:28:31;-18589.00;;;9.78;100.00
28606;BME280;46498;49.968;7.754;2024-02-16T21:33:31;-18590.00;;;9.82;100.00
28606;BME280;46498;49.968;7.754;2024-02-16T21:38:36;-18589.00;;;9.75;100.00
28606;BME280;46498;49.968;7.754;2024-02-16T21:43:37;-18588.00;;;9.74;100.00
28606;BME280;46498;49.968;7.754;2024-02-16T21:48:39;-18589.00;;;9.76;100.00
28606;BME280;46498;49.968;7.754;2024-02-16T21:53:49;-18586.00;;;9.68;100.00
28606;BME280;46498;49.968;7.754;2024-02-16T21:58:51;-18584.00;;;9.63;100.00
28606;BME280;46498;49.968;7.754;2024-02-16T22:03:51;-18584.00;;;9.61;100.00
28606;BME280;46498;49.968;7.754;2024-02-16T22:08:53;-18580.00;;;9.49;100.00
28606;BME280;46498;49.968;7.754;2024-02-16T22:13:54;-18579.00;;;9.47;100.00
28606;BME280;46498;49.968;7.754;2024-02-16T22:18:55;-18579.00;;;9.44;100.00
28606;BME280;46498;49.968;7.754;2024-02-16T22:23:56;-18579.00;;;9.44;100.00
28606;BME280;46498;49.968;7.754;2024-02-16T22:28:58;-18579.00;;;9.46;100.00
28606;BME280;46498;49.968;7.754;2024-02-16T22:33:59;-18576.00;;;9.36;100.00
28606;BME280;46498;49.968;7.754;2024-02-16T22:39:00;-18575.00;;;9.33;100.00
28606;BME280;46498;49.968;7.754;2024-02-16T22:44:02;-18573.00;;;9.27;100.00
28606;BME280;46498;49.968;7.754;2024-02-16T22:49:04;-18571.00;;;9.21;100.00
28606;BME280;46498;49.968;7.754;2024-02-16T22:54:05;-18568.00;;;9.12;100.00
28606;BME280;46498;49.968;7.754;2024-02-16T22:59:06;-18566.00;;;9.06;100.00
28606;BME280;46498;49.968;7.754;2024-02-16T23:04:07;-18567.00;;;9.09;100.00
28606;BME280;46498;49.968;7.754;2024-02-16T23:09:09;-18567.00;;;9.07;100.00
28606;BME280;46498;49.968;7.754;2024-02-16T23:14:11;-18566.00;;;9.06;100.00
28606;BME280;46498;49.968;7.754;2024-02-16T23:19:11;-18562.00;;;8.91;100.00
28606;BME280;46498;49.968;7.754;2024-02-16T23:24:12;-18560.00;;;8.87;100.00
28606;BME280;46498;49.968;7.754;2024-02-16T23:29:13;-18557.00;;;8.77;100.00
28606;BME280;46498;49.968;7.754;2024-02-16T23:34:17;-18554.00;;;8.68;100.00
28606;BME280;46498;49.968;7.754;2024-02-16T23:39:18;-18554.00;;;8.68;100.00
28606;BME280;46498;49.968;7.754;2024-02-16T23:44:19;-18551.00;;;8.58;100.00
28606;BME280;46498;49.968;7.754;2024-02-16T23:49:19;-18550.00;;;8.53;100.00
28606;BME280;46498;49.968;7.754;2024-02-16T23:54:20;-18550.00;;;8.55;100.00
28606;BME280;46498;49.968;7.754;2024-02-16T23:59:21;-18547.00;;;8.45;100.00
